Aviation Digital Data Service (ADDS)

Output produced by TAFs form (1910 UTC 21 April 2018)
found at http://aviationweather.gov/adds/tafs/
 
EGPK 211850Z 00000KT CAVOK 15/05 Q1011
TAF EGPK 211653Z 2118/2218 VRB05KT 9999 SCT030 
     BECMG 2206/2209 19010KT 
     TEMPO 2207/2218 6000 RA BKN012 
     BECMG 2209/2212 25013KT 
     PROB30 
     TEMPO 2212/2214 3000 +RA BKN008